createdAt,value
2023-05-09T00:01:51.090Z,8.18
2023-05-09T00:04:17.981Z,8.45
2023-05-09T00:06:45.161Z,8.25
2023-05-09T00:09:13.686Z,10.05
2023-05-09T00:11:41.150Z,9.45
2023-05-09T00:14:08.547Z,10.27
2023-05-09T00:16:36.856Z,11.80
2023-05-09T00:19:04.486Z,11.00
2023-05-09T00:21:31.299Z,11.63
2023-05-09T00:24:16.037Z,12.75
2023-05-09T00:26:43.031Z,14.10
2023-05-09T00:29:10.127Z,12.68
2023-05-09T00:31:38.315Z,14.35
2023-05-09T00:34:05.195Z,14.55
2023-05-09T00:36:33.004Z,15.82
2023-05-09T00:39:00.078Z,16.17
2023-05-09T00:41:26.891Z,18.55
2023-05-09T00:43:53.698Z,16.48
2023-05-09T00:46:22.121Z,18.48
2023-05-09T00:48:48.998Z,16.98
2023-05-09T00:51:17.019Z,17.00
2023-05-09T00:53:45.865Z,18.95
2023-05-09T00:56:16.908Z,19.63
2023-05-09T00:58:44.317Z,16.80
2023-05-09T01:01:11.821Z,18.23
2023-05-09T01:03:48.759Z,19.75
2023-05-09T01:06:43.647Z,19.98
2023-05-09T01:09:36.824Z,21.30
2023-05-09T01:12:37.140Z,19.52
2023-05-09T01:15:13.352Z,21.60
2023-05-09T01:18:02.762Z,20.63
2023-05-09T01:20:46.717Z,17.75
2023-05-09T01:23:36.321Z,19.63
2023-05-09T01:26:10.409Z,20.17
2023-05-09T01:28:56.546Z,21.40
2023-05-09T01:31:24.738Z,19.98
2023-05-09T01:33:56.624Z,21.25
2023-05-09T01:36:33.034Z,20.67
2023-05-09T01:39:02.850Z,24.00
2023-05-09T01:41:32.299Z,20.98
2023-05-09T01:44:02.162Z,21.08
2023-05-09T01:46:30.737Z,24.23
2023-05-09T01:49:01.239Z,21.67
2023-05-09T01:51:29.834Z,22.33
2023-05-09T01:53:57.197Z,22.23
2023-05-09T01:56:27.041Z,22.83
2023-05-09T01:58:56.427Z,22.15
2023-05-09T02:01:24.725Z,23.85
2023-05-09T02:03:52.844Z,22.13
2023-05-09T02:06:23.405Z,22.33
2023-05-09T02:08:51.424Z,23.40
2023-05-09T02:11:19.901Z,22.90
2023-05-09T02:13:46.737Z,23.15
2023-05-09T02:16:14.234Z,23.50
2023-05-09T02:18:42.169Z,24.17
2023-05-09T02:21:10.432Z,21.20
2023-05-09T02:23:38.276Z,23.05
2023-05-09T02:26:08.851Z,22.70
2023-05-09T02:28:36.735Z,23.30
2023-05-09T02:31:07.132Z,23.77
2023-05-09T02:33:37.192Z,23.27
2023-05-09T02:36:06.100Z,24.33
2023-05-09T02:38:34.226Z,22.88
2023-05-09T02:41:02.172Z,22.08
2023-05-09T02:43:28.929Z,22.92
2023-05-09T02:45:56.950Z,23.75
2023-05-09T02:48:23.924Z,22.52
2023-05-09T02:50:52.228Z,21.42
2023-05-09T02:53:19.079Z,21.60
2023-05-09T02:55:46.194Z,21.83
2023-05-09T02:58:14.711Z,21.20
2023-05-09T03:00:44.174Z,22.13
2023-05-09T03:03:12.915Z,21.83
2023-05-09T03:05:40.617Z,21.70
2023-05-09T03:08:11.357Z,20.80
2023-05-09T03:10:38.434Z,22.88
2023-05-09T03:13:05.462Z,19.58
2023-05-09T03:15:32.832Z,21.85
2023-05-09T03:18:00.510Z,19.63
2023-05-09T03:20:28.005Z,19.90
2023-05-09T03:22:55.178Z,19.20
2023-05-09T03:25:22.569Z,20.08
2023-05-09T03:27:49.305Z,20.52
2023-05-09T03:30:16.296Z,20.15
2023-05-09T03:32:46.227Z,20.27
2023-05-09T03:35:13.116Z,18.85
2023-05-09T03:37:40.224Z,20.35
2023-05-09T03:40:09.117Z,19.67
2023-05-09T03:42:43.016Z,20.00
2023-05-09T03:45:10.907Z,19.55
2023-05-09T03:47:37.969Z,18.35
2023-05-09T03:50:06.331Z,18.75
2023-05-09T03:52:35.020Z,20.67
2023-05-09T03:55:02.377Z,19.13
2023-05-09T03:57:35.296Z,18.65
2023-05-09T04:00:05.028Z,19.88
2023-05-09T04:02:40.704Z,19.08
2023-05-09T04:05:12.960Z,19.20
2023-05-09T04:07:40.360Z,19.70
2023-05-09T04:10:17.878Z,19.85
2023-05-09T04:12:45.821Z,19.58
2023-05-09T04:15:14.646Z,19.27
2023-05-09T04:17:43.002Z,18.52
2023-05-09T04:20:10.933Z,21.27
2023-05-09T04:22:37.970Z,17.83
2023-05-09T04:25:05.138Z,17.33
2023-05-09T04:27:31.994Z,17.45
2023-05-09T04:30:00.336Z,19.25
2023-05-09T04:32:27.313Z,16.65
2023-05-09T04:34:54.884Z,17.15
2023-05-09T04:37:26.227Z,18.02
2023-05-09T04:39:53.919Z,19.05
2023-05-09T04:42:26.754Z,17.17
2023-05-09T04:44:54.868Z,16.63
2023-05-09T04:47:22.713Z,17.88
2023-05-09T04:49:49.659Z,18.60
2023-05-09T04:52:20.438Z,18.05
2023-05-09T04:54:47.450Z,16.23
2023-05-09T04:57:18.513Z,16.02
2023-05-09T04:59:53.383Z,16.13
2023-05-09T05:02:22.884Z,16.42
2023-05-09T05:04:56.101Z,16.58
2023-05-09T05:07:27.606Z,15.68
2023-05-09T05:09:54.578Z,14.18
2023-05-09T05:12:22.537Z,14.75
2023-05-09T05:14:50.266Z,15.93
2023-05-09T05:17:20.092Z,15.10
2023-05-09T05:19:46.985Z,14.82
2023-05-09T05:22:14.903Z,14.73
2023-05-09T05:24:44.201Z,14.38
2023-05-09T05:27:11.179Z,14.90
2023-05-09T05:29:37.920Z,14.77
2023-05-09T05:32:05.099Z,15.32
2023-05-09T05:34:32.086Z,14.63
2023-05-09T05:36:59.368Z,14.68
2023-05-09T05:39:26.101Z,13.73
2023-05-09T05:41:53.765Z,13.25
2023-05-09T05:44:21.189Z,13.05
2023-05-09T05:46:48.102Z,14.40
2023-05-09T05:49:14.989Z,13.38
2023-05-09T05:51:41.813Z,13.00
2023-05-09T05:54:09.512Z,12.77
2023-05-09T05:56:37.359Z,11.15
2023-05-09T05:59:04.792Z,12.00
2023-05-09T06:01:31.946Z,13.70
2023-05-09T06:03:58.980Z,12.35
2023-05-09T06:06:29.368Z,13.63
2023-05-09T06:08:56.607Z,13.02
2023-05-09T06:11:23.537Z,12.52
2023-05-09T06:13:50.649Z,13.75
2023-05-09T06:16:20.164Z,12.20
2023-05-09T06:18:51.152Z,11.73
2023-05-09T06:21:18.512Z,12.98
2023-05-09T06:23:57.741Z,12.82
2023-05-09T06:26:32.338Z,11.55
2023-05-09T06:28:58.973Z,13.30
2023-05-09T06:31:26.438Z,13.35
2023-05-09T06:33:53.463Z,14.18
2023-05-09T06:36:20.761Z,14.45
2023-05-09T06:38:47.909Z,13.00
2023-05-09T06:41:14.637Z,12.30
2023-05-09T06:43:41.483Z,13.52
2023-05-09T06:46:08.546Z,12.32
2023-05-09T06:48:35.809Z,13.85
2023-05-09T06:51:02.792Z,13.40
2023-05-09T06:53:29.424Z,12.18
2023-05-09T06:55:56.259Z,12.55
2023-05-09T06:58:23.577Z,14.70
2023-05-09T07:00:51.455Z,11.75
2023-05-09T07:03:18.851Z,13.57
2023-05-09T07:05:45.942Z,13.50
2023-05-09T07:08:12.663Z,11.77
2023-05-09T07:10:39.462Z,13.50
2023-05-09T07:13:07.290Z,13.25
2023-05-09T07:15:41.899Z,14.48
2023-05-09T07:18:09.258Z,14.05
2023-05-09T07:20:36.152Z,14.43
2023-05-09T07:23:06.294Z,13.23
2023-05-09T07:25:33.656Z,12.77
2023-05-09T07:28:00.570Z,12.50
2023-05-09T07:30:27.697Z,11.63
2023-05-09T07:32:54.425Z,12.30
2023-05-09T07:35:21.451Z,11.35
2023-05-09T07:37:48.479Z,11.13
2023-05-09T07:40:15.763Z,10.48
2023-05-09T07:42:49.652Z,9.18
2023-05-09T07:45:17.016Z,8.07
2023-05-09T07:47:44.548Z,8.63
2023-05-09T07:50:11.417Z,8.45
2023-05-09T07:52:38.278Z,8.50
2023-05-09T07:55:05.376Z,8.85
2023-05-09T07:57:32.076Z,7.75
2023-05-09T07:59:58.846Z,8.73
2023-05-09T08:02:25.840Z,8.10
2023-05-09T08:04:53.017Z,6.57
2023-05-09T08:07:19.907Z,7.18
2023-05-09T08:09:47.004Z,7.25
2023-05-09T08:12:13.820Z,7.20
2023-05-09T08:14:41.039Z,7.75
2023-05-09T08:17:07.873Z,8.43
2023-05-09T08:19:34.713Z,7.93
2023-05-09T08:22:01.563Z,8.60
2023-05-09T08:24:28.365Z,9.13
2023-05-09T08:26:55.183Z,7.72
2023-05-09T08:29:21.988Z,7.28
2023-05-09T08:31:48.960Z,5.55
2023-05-09T08:34:16.152Z,5.35
2023-05-09T08:36:45.559Z,4.78
2023-05-09T08:39:12.795Z,6.47
2023-05-09T08:41:39.895Z,5.80
2023-05-09T08:44:07.333Z,5.05
2023-05-09T08:46:38.774Z,5.18
2023-05-09T08:49:07.378Z,5.45
2023-05-09T08:51:35.959Z,4.78
2023-05-09T08:54:03.287Z,4.32
2023-05-09T08:56:35.298Z,4.57
2023-05-09T08:59:02.402Z,4.28
2023-05-09T09:01:29.546Z,5.40
2023-05-09T09:03:56.934Z,4.60
2023-05-09T09:06:25.892Z,4.90
2023-05-09T09:08:55.606Z,4.65
2023-05-09T09:11:22.917Z,4.85
2023-05-09T09:13:52.842Z,5.20
2023-05-09T09:16:21.575Z,4.93
2023-05-09T09:18:51.667Z,6.00
2023-05-09T09:21:20.273Z,6.13
2023-05-09T09:23:48.887Z,6.70
2023-05-09T09:26:16.265Z,6.88
2023-05-09T09:28:43.615Z,6.90
2023-05-09T09:31:20.158Z,9.15
2023-05-09T09:33:47.402Z,7.65
2023-05-09T09:36:14.422Z,7.15
2023-05-09T09:38:43.891Z,7.80
2023-05-09T09:41:13.012Z,9.45
2023-05-09T09:43:46.224Z,8.82
2023-05-09T09:46:14.293Z,9.18
2023-05-09T09:48:50.481Z,8.23
2023-05-09T09:51:18.514Z,9.75
2023-05-09T09:53:45.436Z,9.95
2023-05-09T09:56:12.288Z,9.52
2023-05-09T09:58:39.399Z,9.90
2023-05-09T10:01:11.424Z,10.63
2023-05-09T10:03:40.985Z,9.35
2023-05-09T10:06:16.916Z,10.05
2023-05-09T10:08:47.191Z,9.55
2023-05-09T10:11:14.367Z,8.93
2023-05-09T10:13:42.564Z,8.85
2023-05-09T10:16:10.780Z,7.45
2023-05-09T10:18:39.941Z,9.23
2023-05-09T10:21:11.585Z,8.10
2023-05-09T10:23:42.566Z,8.43
2023-05-09T10:26:19.057Z,7.13
2023-05-09T10:28:49.109Z,7.30
2023-05-09T10:31:25.434Z,7.55
2023-05-09T10:33:52.685Z,6.93
2023-05-09T10:36:21.461Z,7.03
2023-05-09T10:38:49.378Z,7.13
2023-05-09T10:41:17.708Z,7.35
2023-05-09T10:43:45.822Z,6.88
2023-05-09T10:46:13.539Z,5.93
2023-05-09T10:48:42.984Z,6.50
2023-05-09T10:51:10.520Z,7.50
2023-05-09T10:53:58.137Z,6.95
2023-05-09T10:56:35.836Z,7.05
2023-05-09T10:59:03.221Z,7.20
2023-05-09T11:01:37.170Z,6.75
2023-05-09T11:04:12.978Z,7.30
2023-05-09T11:06:40.967Z,7.43
2023-05-09T11:09:29.581Z,6.85
2023-05-09T11:11:58.297Z,8.27
2023-05-09T11:14:32.492Z,7.40
2023-05-09T11:17:01.021Z,6.60
2023-05-09T11:19:54.195Z,7.43
2023-05-09T11:22:32.914Z,7.10
2023-05-09T11:25:10.309Z,6.57
2023-05-09T11:27:44.849Z,7.43
2023-05-09T11:30:14.823Z,6.28
2023-05-09T11:32:45.517Z,6.85
2023-05-09T11:35:18.269Z,6.85
2023-05-09T11:37:47.259Z,7.22
2023-05-09T11:40:15.820Z,7.63
2023-05-09T11:42:45.036Z,6.90
2023-05-09T11:45:13.699Z,6.70
2023-05-09T11:47:41.110Z,7.65
2023-05-09T11:50:14.072Z,6.60
2023-05-09T11:52:41.967Z,6.45
2023-05-09T11:55:12.614Z,6.57
2023-05-09T11:57:46.436Z,5.97
2023-05-09T12:00:15.970Z,6.07
2023-05-09T12:02:45.392Z,6.32
2023-05-09T12:05:17.557Z,6.72
2023-05-09T12:07:45.234Z,6.30
2023-05-09T12:10:14.088Z,5.80
2023-05-09T12:12:45.798Z,4.80
2023-05-09T12:15:14.101Z,5.50
2023-05-09T12:17:42.973Z,6.57
2023-05-09T12:20:10.434Z,6.68
2023-05-09T12:22:37.933Z,6.40
2023-05-09T12:25:10.315Z,5.05
2023-05-09T12:27:38.652Z,5.35
2023-05-09T12:30:09.920Z,4.97
2023-05-09T12:32:39.764Z,5.20
2023-05-09T12:35:11.001Z,5.57
2023-05-09T12:37:38.072Z,6.07
2023-05-09T12:40:13.245Z,6.07
2023-05-09T12:42:44.189Z,5.55
2023-05-09T12:45:11.779Z,5.03
2023-05-09T12:47:39.595Z,5.88
2023-05-09T12:50:08.589Z,5.57
2023-05-09T12:52:50.196Z,5.65
2023-05-09T12:55:25.709Z,6.53
2023-05-09T12:58:03.632Z,6.43
2023-05-09T13:00:43.775Z,5.65
2023-05-09T13:03:25.500Z,6.03
2023-05-09T13:05:57.785Z,4.38
2023-05-09T13:08:24.871Z,5.78
2023-05-09T13:10:57.856Z,4.20
2023-05-09T13:13:31.981Z,3.97
2023-05-09T13:15:59.237Z,4.18
2023-05-09T13:18:26.178Z,4.63
2023-05-09T13:20:52.788Z,5.47
2023-05-09T13:23:19.468Z,5.40
2023-05-09T13:25:46.312Z,5.63
2023-05-09T13:28:15.164Z,6.30
2023-05-09T13:30:42.031Z,5.63
2023-05-09T13:33:23.972Z,5.97
2023-05-09T13:35:51.696Z,4.90
2023-05-09T13:38:18.489Z,4.85
2023-05-09T13:40:45.332Z,5.32
2023-05-09T13:43:12.064Z,4.75
2023-05-09T13:45:39.099Z,5.10
2023-05-09T13:48:06.365Z,5.25
2023-05-09T13:50:34.296Z,4.20
2023-05-09T13:53:01.342Z,4.22
2023-05-09T13:55:28.185Z,4.80
2023-05-09T13:57:56.434Z,4.53
2023-05-09T14:00:25.608Z,4.72
2023-05-09T14:02:55.865Z,4.90
2023-05-09T14:05:22.962Z,5.45
2023-05-09T14:07:50.131Z,4.72
2023-05-09T14:10:18.001Z,4.05
2023-05-09T14:12:46.841Z,4.63
2023-05-09T14:15:13.973Z,4.60
2023-05-09T14:17:41.259Z,4.78
2023-05-09T14:20:09.636Z,4.72
2023-05-09T14:22:36.590Z,4.05
2023-05-09T14:25:03.443Z,5.00
2023-05-09T14:27:32.385Z,5.03
2023-05-09T14:29:59.140Z,4.50
2023-05-09T14:32:26.111Z,5.53
2023-05-09T14:34:52.904Z,4.90
2023-05-09T14:37:19.621Z,4.93
2023-05-09T14:39:46.853Z,4.90
2023-05-09T14:42:16.573Z,3.78
2023-05-09T14:44:43.352Z,3.42
2023-05-09T14:47:10.285Z,4.18
2023-05-09T14:49:39.012Z,5.00
2023-05-09T14:52:06.199Z,5.00
2023-05-09T14:54:32.897Z,5.80
2023-05-09T14:57:02.064Z,7.55
2023-05-09T14:59:29.741Z,5.07
2023-05-09T15:01:56.720Z,6.03
2023-05-09T15:04:28.433Z,7.68
2023-05-09T15:06:57.096Z,7.47
2023-05-09T15:09:24.107Z,6.90
2023-05-09T15:11:51.106Z,7.32
2023-05-09T15:14:20.946Z,6.38
2023-05-09T15:19:19.962Z,2.33
2023-05-09T15:21:46.757Z,2.20
2023-05-09T15:24:13.880Z,2.78
2023-05-09T15:26:40.655Z,2.28
2023-05-09T15:29:07.415Z,2.13
2023-05-09T15:31:37.272Z,2.67
2023-05-09T15:34:04.963Z,2.60
2023-05-09T15:36:33.850Z,2.30
2023-05-09T15:39:00.827Z,2.10
2023-05-09T15:41:27.612Z,2.42
2023-05-09T15:43:54.452Z,2.40
2023-05-09T15:46:21.993Z,2.75
2023-05-09T15:48:48.667Z,2.30
2023-05-09T15:51:15.650Z,2.10
2023-05-09T15:53:42.753Z,2.30
2023-05-09T15:56:10.070Z,1.75
2023-05-09T15:58:36.997Z,1.60
2023-05-09T16:01:06.517Z,1.60
2023-05-09T16:03:34.246Z,1.50
2023-05-09T16:06:01.545Z,1.95
2023-05-09T16:08:28.418Z,1.20
2023-05-09T16:10:55.543Z,0.82
2023-05-09T16:13:22.797Z,1.30
2023-05-09T16:15:51.270Z,1.05
2023-05-09T16:18:18.141Z,1.20
2023-05-09T16:20:44.976Z,1.17
2023-05-09T16:23:12.032Z,1.42
2023-05-09T16:25:38.934Z,1.38
2023-05-09T16:28:11.340Z,1.00
2023-05-09T16:30:38.269Z,1.17
2023-05-09T16:33:05.285Z,1.27
2023-05-09T16:35:32.205Z,1.38
2023-05-09T16:37:59.128Z,1.42
2023-05-09T16:40:25.815Z,1.27
2023-05-09T16:42:53.832Z,1.50
2023-05-09T16:45:20.675Z,1.40
2023-05-09T16:47:47.654Z,1.50
2023-05-09T16:50:14.699Z,1.83
2023-05-09T16:52:41.808Z,1.40
2023-05-09T16:55:08.966Z,1.50
2023-05-09T16:57:35.886Z,1.55
2023-05-09T17:00:03.239Z,1.45
2023-05-09T17:02:30.090Z,1.80
2023-05-09T17:04:57.110Z,1.83
2023-05-09T17:07:24.185Z,1.35
2023-05-09T17:09:51.010Z,1.90
2023-05-09T17:12:18.689Z,1.42
2023-05-09T17:14:47.179Z,1.80
2023-05-09T17:17:14.978Z,1.60
2023-05-09T17:19:41.979Z,1.52
2023-05-09T17:22:09.350Z,2.28
2023-05-09T17:24:36.305Z,1.50
2023-05-09T17:27:04.168Z,1.88
2023-05-09T17:29:31.581Z,1.30
2023-05-09T17:32:02.107Z,1.48
2023-05-09T17:34:29.480Z,1.30
2023-05-09T17:36:56.635Z,1.10
2023-05-09T17:39:23.997Z,1.02
2023-05-09T17:41:50.940Z,1.00
2023-05-09T17:44:17.952Z,1.08
2023-05-09T17:46:44.675Z,0.98
2023-05-09T17:49:14.202Z,1.20
2023-05-09T17:51:41.429Z,1.30
2023-05-09T17:54:11.069Z,1.15
2023-05-09T17:56:39.654Z,1.05
2023-05-09T17:59:06.660Z,1.00
2023-05-09T18:01:33.613Z,0.90
2023-05-09T18:04:00.788Z,1.00
2023-05-09T18:06:27.632Z,0.70
2023-05-09T18:08:54.567Z,0.90
2023-05-09T18:11:22.823Z,1.02
2023-05-09T18:13:49.747Z,1.02
2023-05-09T18:16:16.629Z,1.20
2023-05-09T18:18:44.911Z,1.02
2023-05-09T18:21:11.670Z,0.70
2023-05-09T18:23:38.740Z,1.30
2023-05-09T18:26:05.952Z,1.10
2023-05-09T18:28:39.224Z,0.90
2023-05-09T18:31:07.885Z,0.93
2023-05-09T18:33:36.908Z,0.70
2023-05-09T18:36:04.419Z,1.10
2023-05-09T18:38:38.124Z,1.27
2023-05-09T18:41:07.393Z,1.92
2023-05-09T18:43:35.692Z,1.40
2023-05-09T18:46:05.880Z,1.52
2023-05-09T18:48:33.682Z,1.70
2023-05-09T18:51:00.583Z,1.50
2023-05-09T18:53:29.087Z,1.30
2023-05-09T18:55:56.963Z,1.60
2023-05-09T18:58:24.898Z,1.45
2023-05-09T19:00:53.093Z,1.50
2023-05-09T19:03:21.214Z,1.58
2023-05-09T19:05:48.395Z,1.40
2023-05-09T19:08:15.301Z,1.27
2023-05-09T19:10:42.719Z,1.83
2023-05-09T19:13:09.736Z,1.60
2023-05-09T19:15:36.683Z,1.30
2023-05-09T19:18:03.948Z,1.58
2023-05-09T19:20:31.301Z,1.90
2023-05-09T19:22:58.462Z,1.50
2023-05-09T19:25:26.002Z,2.10
2023-05-09T19:27:53.131Z,1.88
2023-05-09T19:30:21.009Z,1.98
2023-05-09T19:32:48.043Z,2.28
2023-05-09T19:35:14.899Z,2.60
2023-05-09T19:37:41.700Z,2.28
2023-05-09T19:40:08.953Z,1.90
2023-05-09T19:42:36.541Z,1.95
2023-05-09T19:45:04.590Z,1.48
2023-05-09T19:47:32.030Z,1.67
2023-05-09T19:50:00.042Z,1.38
2023-05-09T19:52:27.057Z,1.48
2023-05-09T19:54:54.881Z,1.55
2023-05-09T19:57:21.961Z,2.00
2023-05-09T19:59:48.809Z,1.42
2023-05-09T20:02:15.661Z,1.40
2023-05-09T20:04:49.554Z,1.70
2023-05-09T20:07:17.864Z,1.17
2023-05-09T20:09:44.832Z,1.58
2023-05-09T20:12:13.282Z,2.03
2023-05-09T20:14:40.528Z,1.50
2023-05-09T20:17:07.494Z,1.70
2023-05-09T20:19:34.908Z,1.60
2023-05-09T20:22:02.024Z,1.58
2023-05-09T20:24:29.055Z,2.47
2023-05-09T20:26:57.708Z,2.10
2023-05-09T20:29:25.412Z,2.30
2023-05-09T20:31:52.326Z,2.38
2023-05-09T20:34:21.173Z,2.60
2023-05-09T20:36:52.393Z,2.40
2023-05-09T20:39:20.210Z,2.10
2023-05-09T20:41:48.267Z,2.38
2023-05-09T20:44:17.342Z,1.92
2023-05-09T20:46:45.356Z,1.98
2023-05-09T20:49:13.169Z,1.80
2023-05-09T20:51:40.232Z,1.70
2023-05-09T20:54:07.326Z,1.67
2023-05-09T20:56:35.709Z,1.67
2023-05-09T20:59:04.327Z,2.05
2023-05-09T21:01:32.694Z,1.63
2023-05-09T21:03:59.633Z,2.63
2023-05-09T21:06:26.944Z,2.55
2023-05-09T21:08:53.800Z,2.70
2023-05-09T21:11:22.046Z,3.05
2023-05-09T21:13:49.450Z,3.90
2023-05-09T21:16:16.527Z,3.83
2023-05-09T21:18:43.552Z,4.22
2023-05-09T21:21:10.368Z,6.00
2023-05-09T21:23:37.482Z,6.40
2023-05-09T21:26:04.365Z,6.18
2023-05-09T21:28:31.607Z,6.93
2023-05-09T21:31:00.784Z,6.60
2023-05-09T21:33:28.207Z,6.25
2023-05-09T21:35:55.343Z,7.20
2023-05-09T21:38:22.352Z,6.80
2023-05-09T21:40:51.552Z,6.07
2023-05-09T21:43:19.675Z,7.50
2023-05-09T21:45:46.686Z,7.00
2023-05-09T21:48:13.532Z,6.75
2023-05-09T21:50:40.537Z,7.43
2023-05-09T21:53:07.396Z,8.45
2023-05-09T21:55:34.664Z,8.02
2023-05-09T21:58:01.527Z,8.65
2023-05-09T22:00:28.375Z,8.98
2023-05-09T22:02:55.390Z,8.93
2023-05-09T22:05:23.957Z,10.07
2023-05-09T22:07:51.693Z,10.30
2023-05-09T22:10:18.667Z,10.77
2023-05-09T22:12:46.090Z,9.70
2023-05-09T22:15:13.376Z,9.68
2023-05-09T22:17:40.310Z,10.30
2023-05-09T22:20:07.784Z,10.55
2023-05-09T22:22:34.700Z,9.45
2023-05-09T22:25:01.465Z,9.88
2023-05-09T22:27:28.294Z,10.85
2023-05-09T22:29:55.878Z,10.93
2023-05-09T22:32:22.751Z,10.30
2023-05-09T22:34:49.924Z,10.65
2023-05-09T22:37:16.801Z,11.45
2023-05-09T22:39:45.891Z,11.18
2023-05-09T22:42:12.743Z,10.32
2023-05-09T22:44:39.938Z,11.02
2023-05-09T22:47:09.762Z,11.02
2023-05-09T22:49:36.976Z,11.20
2023-05-09T22:52:04.024Z,10.45
2023-05-09T22:54:30.706Z,10.70
2023-05-09T22:56:57.510Z,11.98
2023-05-09T22:59:24.390Z,11.88
2023-05-09T23:01:53.162Z,11.20
2023-05-09T23:04:20.088Z,12.00
2023-05-09T23:06:47.353Z,11.32
2023-05-09T23:09:14.498Z,11.90
2023-05-09T23:11:41.423Z,11.23
2023-05-09T23:14:08.527Z,12.32
2023-05-09T23:16:35.479Z,13.10
2023-05-09T23:19:03.530Z,11.80
2023-05-09T23:21:30.362Z,10.48
2023-05-09T23:23:57.288Z,11.27
2023-05-09T23:26:24.481Z,12.05
2023-05-09T23:28:51.468Z,12.00
2023-05-09T23:31:18.654Z,11.88
2023-05-09T23:33:45.762Z,12.88
2023-05-09T23:36:12.821Z,12.63
2023-05-09T23:38:39.693Z,11.75
2023-05-09T23:41:06.551Z,12.13
2023-05-09T23:43:33.758Z,12.32
2023-05-09T23:46:00.596Z,11.40
2023-05-09T23:48:27.344Z,9.98
2023-05-09T23:50:54.006Z,10.93
2023-05-09T23:53:20.835Z,11.43
2023-05-09T23:55:47.675Z,10.63
2023-05-09T23:58:14.569Z,11.40
